createdAt,value
2022-10-15T00:01:48.723Z,2.17
2022-10-15T00:04:17.138Z,2.23
2022-10-15T00:06:45.142Z,2.20
2022-10-15T00:09:13.098Z,2.14
2022-10-15T00:11:41.461Z,2.21
2022-10-15T00:14:09.218Z,2.01
2022-10-15T00:16:37.189Z,2.02
2022-10-15T00:19:05.626Z,1.82
2022-10-15T00:21:33.568Z,1.82
2022-10-15T00:24:01.441Z,1.93
2022-10-15T00:26:30.340Z,2.15
2022-10-15T00:29:01.698Z,2.05
2022-10-15T00:31:31.712Z,1.79
2022-10-15T00:34:01.745Z,1.77
2022-10-15T00:36:33.870Z,1.69
2022-10-15T00:39:03.204Z,2.24
2022-10-15T00:41:37.654Z,1.77
2022-10-15T00:44:24.448Z,1.66
2022-10-15T00:47:01.299Z,1.49
2022-10-15T00:49:43.509Z,1.36
2022-10-15T00:52:26.845Z,1.36
2022-10-15T00:55:11.796Z,1.33
2022-10-15T00:57:41.853Z,1.36
2022-10-15T01:00:15.501Z,1.37
2022-10-15T01:02:45.433Z,1.42
2022-10-15T01:05:15.616Z,1.48
2022-10-15T01:07:43.968Z,1.54
2022-10-15T01:10:13.990Z,1.68
2022-10-15T01:13:11.507Z,1.76
2022-10-15T01:16:15.445Z,1.85
2022-10-15T01:19:13.578Z,1.95
2022-10-15T01:22:05.167Z,1.86
2022-10-15T01:28:23.185Z,2.08
2022-10-15T01:31:02.853Z,2.14
2022-10-15T01:33:49.574Z,2.13
2022-10-15T01:36:33.753Z,2.22
2022-10-15T01:39:19.192Z,2.25
2022-10-15T01:42:08.637Z,2.34
2022-10-15T01:44:48.668Z,2.38
2022-10-15T01:47:24.230Z,2.42
2022-10-15T01:49:55.628Z,2.46
2022-10-15T01:52:31.828Z,2.48
2022-10-15T01:55:02.617Z,2.46
2022-10-15T01:57:33.142Z,2.40
2022-10-15T02:00:04.340Z,2.59
2022-10-15T02:02:40.512Z,2.59
2022-10-15T02:05:20.533Z,2.59
2022-10-15T02:07:53.164Z,2.59
2022-10-15T02:10:36.527Z,2.67
2022-10-15T02:13:20.726Z,2.65
2022-10-15T02:16:22.384Z,2.61
2022-10-15T02:18:58.500Z,2.63
2022-10-15T02:22:15.433Z,2.60
2022-10-15T02:24:55.744Z,2.61
2022-10-15T02:27:27.578Z,2.62
2022-10-15T02:29:57.332Z,2.62
2022-10-15T02:32:26.872Z,2.63
2022-10-15T02:34:56.275Z,2.59
2022-10-15T02:37:28.483Z,2.65
2022-10-15T02:39:57.134Z,2.68
2022-10-15T02:42:26.229Z,2.71
2022-10-15T02:44:54.752Z,2.68
2022-10-15T02:47:23.105Z,2.71
2022-10-15T02:49:51.015Z,2.71
2022-10-15T02:52:19.752Z,2.69
2022-10-15T02:54:48.116Z,2.71
2022-10-15T02:57:16.155Z,2.76
2022-10-15T02:59:44.309Z,2.74
2022-10-15T03:02:16.779Z,2.76
2022-10-15T03:04:48.098Z,2.78
2022-10-15T03:07:16.388Z,2.76
2022-10-15T03:09:47.922Z,2.80
2022-10-15T03:12:16.675Z,2.80
2022-10-15T03:14:44.485Z,2.82
2022-10-15T03:17:14.520Z,2.79
2022-10-15T03:19:43.439Z,2.81
2022-10-15T03:22:11.683Z,2.86
2022-10-15T03:24:41.112Z,2.90
2022-10-15T03:27:09.678Z,2.96
2022-10-15T03:29:37.759Z,2.94
2022-10-15T03:32:06.208Z,2.89
2022-10-15T03:34:34.463Z,2.86
2022-10-15T03:37:02.623Z,2.88
2022-10-15T03:39:31.299Z,2.90
2022-10-15T03:42:00.708Z,2.91
2022-10-15T03:44:30.370Z,2.92
2022-10-15T03:46:58.940Z,2.95
2022-10-15T03:49:29.505Z,2.97
2022-10-15T03:52:00.609Z,2.93
2022-10-15T03:54:29.058Z,2.98
2022-10-15T03:57:00.193Z,2.98
2022-10-15T03:59:29.253Z,3.02
2022-10-15T04:01:58.584Z,3.08
2022-10-15T04:04:27.268Z,3.01
2022-10-15T04:06:55.207Z,3.00
2022-10-15T04:09:24.051Z,3.04
2022-10-15T04:11:52.311Z,3.05
2022-10-15T04:14:20.567Z,3.08
2022-10-15T04:16:48.434Z,3.13
2022-10-15T04:19:18.009Z,3.10
2022-10-15T04:21:51.910Z,2.98
2022-10-15T04:24:24.972Z,3.13
2022-10-15T04:26:53.620Z,3.13
2022-10-15T04:29:22.035Z,3.15
2022-10-15T04:31:50.553Z,3.21
2022-10-15T04:34:21.269Z,3.18
2022-10-15T04:36:49.771Z,3.23
2022-10-15T04:39:18.663Z,3.26
2022-10-15T04:41:47.164Z,3.23
2022-10-15T04:44:16.217Z,3.26
2022-10-15T04:46:45.539Z,3.31
2022-10-15T04:49:18.961Z,3.32
2022-10-15T04:51:47.171Z,3.29
2022-10-15T04:54:15.771Z,3.28
2022-10-15T04:56:47.367Z,3.37
2022-10-15T04:59:15.702Z,3.39
2022-10-15T05:01:47.277Z,3.44
2022-10-15T05:04:16.072Z,3.51
2022-10-15T05:06:46.846Z,3.56
2022-10-15T05:09:15.641Z,3.55
2022-10-15T05:11:46.382Z,3.61
2022-10-15T05:14:14.324Z,3.67
2022-10-15T05:16:42.606Z,3.75
2022-10-15T05:19:11.728Z,3.82
2022-10-15T05:21:40.136Z,3.81
2022-10-15T05:24:11.350Z,3.85
2022-10-15T05:26:41.296Z,3.91
2022-10-15T05:29:10.129Z,3.93
2022-10-15T05:31:39.014Z,3.98
2022-10-15T05:34:09.199Z,4.00
2022-10-15T05:36:38.749Z,4.06
2022-10-15T05:39:10.719Z,4.09
2022-10-15T05:41:40.762Z,4.12
2022-10-15T05:44:08.985Z,4.13
2022-10-15T05:46:36.833Z,4.19
2022-10-15T05:49:05.072Z,4.16
2022-10-15T05:51:39.481Z,4.24
2022-10-15T05:54:09.297Z,4.24
2022-10-15T05:56:39.016Z,4.27
2022-10-15T05:59:06.788Z,4.30
2022-10-15T06:01:34.871Z,4.32
2022-10-15T06:04:06.212Z,4.37
2022-10-15T06:06:38.554Z,4.46
2022-10-15T06:09:06.736Z,4.49
2022-10-15T06:11:36.786Z,4.52
2022-10-15T06:14:04.462Z,4.51
2022-10-15T06:16:33.662Z,4.61
2022-10-15T06:19:01.707Z,4.62
2022-10-15T06:21:29.709Z,4.69
2022-10-15T06:23:58.095Z,4.73
2022-10-15T06:26:25.885Z,4.77
2022-10-15T06:28:53.741Z,4.79
2022-10-15T06:31:22.007Z,4.88
2022-10-15T06:33:49.844Z,4.94
2022-10-15T06:36:17.841Z,4.93
2022-10-15T06:38:48.043Z,5.09
2022-10-15T06:41:16.909Z,5.13
2022-10-15T06:43:46.452Z,5.18
2022-10-15T06:46:14.719Z,5.19
2022-10-15T06:48:42.639Z,5.30
2022-10-15T06:51:11.532Z,5.33
2022-10-15T06:53:42.563Z,5.37
2022-10-15T06:56:10.467Z,5.47
2022-10-15T06:58:43.330Z,5.52
2022-10-15T07:01:11.639Z,5.55
2022-10-15T07:03:40.279Z,5.58
2022-10-15T07:06:10.233Z,5.63
2022-10-15T07:08:38.355Z,5.72
2022-10-15T07:11:09.627Z,5.76
2022-10-15T07:13:43.790Z,5.78
2022-10-15T07:16:14.005Z,5.84
2022-10-15T07:18:41.919Z,5.94
2022-10-15T07:21:13.079Z,6.00
2022-10-15T07:23:41.575Z,6.05
2022-10-15T07:26:12.769Z,6.00
2022-10-15T07:28:40.666Z,6.05
2022-10-15T07:31:09.351Z,6.03
2022-10-15T07:33:37.640Z,6.11
2022-10-15T07:36:13.081Z,6.19
2022-10-15T07:38:42.567Z,6.23
2022-10-15T07:41:11.515Z,6.33
2022-10-15T07:43:43.668Z,6.38
2022-10-15T07:46:14.637Z,6.50
2022-10-15T07:48:42.831Z,6.54
2022-10-15T07:51:12.080Z,6.66
2022-10-15T07:53:40.099Z,6.69
2022-10-15T07:56:11.561Z,6.78
2022-10-15T07:58:40.165Z,6.72
2022-10-15T08:01:10.947Z,6.87
2022-10-15T08:03:39.487Z,6.92
2022-10-15T08:06:08.770Z,7.02
2022-10-15T08:08:37.645Z,7.04
2022-10-15T08:11:08.305Z,7.11
2022-10-15T08:13:36.485Z,7.16
2022-10-15T08:16:04.738Z,7.23
2022-10-15T08:18:33.081Z,7.33
2022-10-15T08:21:05.515Z,7.49
2022-10-15T08:23:34.119Z,7.56
2022-10-15T08:26:02.353Z,7.60
2022-10-15T08:28:32.245Z,7.69
2022-10-15T08:31:05.209Z,7.75
2022-10-15T08:33:37.732Z,7.86
2022-10-15T08:36:06.908Z,8.04
2022-10-15T08:38:35.233Z,8.24
2022-10-15T08:41:06.402Z,8.41
2022-10-15T08:43:41.202Z,8.47
2022-10-15T08:46:23.502Z,8.51
2022-10-15T08:48:55.667Z,8.61
2022-10-15T08:51:28.444Z,8.65
2022-10-15T08:54:02.556Z,8.74
2022-10-15T08:56:41.761Z,8.61
2022-10-15T08:59:28.563Z,8.53
2022-10-15T09:02:16.007Z,8.53
2022-10-15T09:04:56.021Z,8.58
2022-10-15T09:07:34.020Z,8.54
2022-10-15T09:10:43.604Z,8.59
2022-10-15T09:13:22.216Z,8.56
2022-10-15T09:16:38.882Z,8.54
2022-10-15T09:19:18.912Z,8.41
2022-10-15T09:21:48.920Z,8.57
2022-10-15T09:24:23.056Z,8.29
2022-10-15T09:27:04.616Z,8.41
2022-10-15T09:29:50.935Z,8.50
2022-10-15T09:32:37.727Z,8.41
2022-10-15T09:35:15.623Z,8.37
2022-10-15T09:38:25.191Z,8.43
2022-10-15T09:41:25.750Z,8.60
2022-10-15T09:43:58.668Z,8.59
2022-10-15T09:46:29.734Z,8.51
2022-10-15T09:49:07.534Z,8.51
2022-10-15T09:51:54.398Z,8.52
2022-10-15T09:54:38.582Z,8.55
2022-10-15T09:57:10.039Z,8.61
2022-10-15T09:59:38.349Z,8.64
2022-10-15T10:02:15.724Z,8.84
2022-10-15T10:04:44.912Z,8.94
2022-10-15T10:07:33.090Z,8.75
2022-10-15T10:10:05.943Z,8.45
2022-10-15T10:12:38.234Z,8.55
2022-10-15T10:15:29.226Z,8.62
2022-10-15T10:17:58.413Z,8.71
2022-10-15T10:20:30.040Z,8.74
2022-10-15T10:23:00.919Z,8.81
2022-10-15T10:25:36.065Z,8.96
2022-10-15T10:28:06.741Z,8.85
2022-10-15T10:30:43.103Z,8.92
2022-10-15T10:33:15.847Z,8.96
2022-10-15T10:35:51.574Z,8.79
2022-10-15T10:38:32.555Z,8.81
2022-10-15T10:41:08.742Z,8.80
2022-10-15T10:43:41.874Z,8.75
2022-10-15T10:46:16.912Z,8.57
2022-10-15T10:48:49.037Z,8.61
2022-10-15T10:51:22.956Z,8.56
2022-10-15T10:54:07.450Z,8.43
2022-10-15T10:56:42.940Z,8.36
2022-10-15T10:59:45.390Z,8.44
2022-10-15T11:02:13.773Z,8.36
2022-10-15T11:04:41.933Z,8.40
2022-10-15T11:07:32.538Z,8.28
2022-10-15T11:10:10.380Z,8.50
2022-10-15T11:13:02.772Z,8.55
2022-10-15T11:15:42.133Z,8.54
2022-10-15T11:18:50.183Z,8.61
2022-10-15T11:21:44.358Z,8.68
2022-10-15T11:24:48.344Z,8.62
2022-10-15T11:27:36.560Z,8.83
2022-10-15T11:30:40.289Z,8.64
2022-10-15T11:33:35.396Z,8.86
2022-10-15T11:36:43.012Z,9.07
2022-10-15T11:39:22.998Z,8.82
2022-10-15T11:42:21.842Z,8.76
2022-10-15T11:45:11.002Z,8.68
2022-10-15T11:47:54.689Z,9.37
2022-10-15T11:50:45.789Z,8.81
2022-10-15T11:53:40.940Z,8.89
2022-10-15T11:56:34.940Z,8.81
2022-10-15T11:59:17.617Z,9.18
2022-10-15T12:01:53.025Z,9.09
2022-10-15T12:04:59.593Z,8.88
2022-10-15T12:07:45.463Z,8.82
2022-10-15T12:10:35.595Z,9.17
2022-10-15T12:13:46.440Z,9.00
2022-10-15T12:16:46.415Z,9.09
2022-10-15T12:19:20.132Z,8.97
2022-10-15T12:21:56.687Z,9.02
2022-10-15T12:24:39.901Z,8.79
2022-10-15T12:27:22.674Z,8.71
2022-10-15T12:30:14.125Z,8.64
2022-10-15T12:32:49.111Z,8.46
2022-10-15T12:35:16.916Z,8.96
2022-10-15T12:37:48.329Z,9.03
2022-10-15T12:40:21.887Z,8.89
2022-10-15T12:42:54.143Z,8.91
2022-10-15T12:45:37.352Z,8.76
2022-10-15T12:48:21.908Z,9.00
2022-10-15T12:50:49.679Z,8.76
2022-10-15T12:56:10.326Z,8.58
2022-10-15T12:58:41.374Z,8.82
2022-10-15T13:01:14.885Z,8.80
2022-10-15T13:03:49.344Z,8.44
2022-10-15T13:06:26.629Z,8.46
2022-10-15T13:09:19.677Z,8.47
2022-10-15T13:14:32.485Z,8.23
2022-10-15T13:17:06.740Z,8.23
2022-10-15T13:19:46.102Z,8.58
2022-10-15T13:22:28.953Z,8.74
2022-10-15T13:24:57.122Z,8.21
2022-10-15T13:27:29.290Z,8.38
2022-10-15T13:30:03.973Z,8.39
2022-10-15T13:32:56.307Z,8.61
2022-10-15T13:35:29.711Z,8.08
2022-10-15T13:37:58.298Z,7.91
2022-10-15T13:40:29.191Z,7.82
2022-10-15T13:43:07.290Z,7.93
2022-10-15T13:45:35.717Z,7.73
2022-10-15T13:48:03.534Z,7.89
2022-10-15T13:50:37.199Z,7.76
2022-10-15T13:53:14.359Z,7.80
2022-10-15T13:55:47.512Z,7.83
2022-10-15T13:58:29.509Z,7.54
2022-10-15T14:01:02.006Z,7.44
2022-10-15T14:03:32.380Z,7.52
2022-10-15T14:06:15.922Z,7.37
2022-10-15T14:08:44.469Z,7.37
2022-10-15T14:11:13.930Z,7.46
2022-10-15T14:13:46.584Z,7.32
2022-10-15T14:16:37.796Z,7.21
2022-10-15T14:19:06.393Z,7.18
2022-10-15T14:21:36.390Z,7.15
2022-10-15T14:24:21.303Z,7.10
2022-10-15T14:26:50.149Z,7.10
2022-10-15T14:29:30.030Z,7.44
2022-10-15T14:31:58.303Z,7.14
2022-10-15T14:34:31.183Z,7.17
2022-10-15T14:36:59.494Z,7.06
2022-10-15T14:39:37.086Z,6.94
2022-10-15T14:42:08.188Z,6.88
2022-10-15T14:44:47.978Z,6.85
2022-10-15T14:47:23.455Z,6.81
2022-10-15T14:49:55.643Z,6.89
2022-10-15T14:52:24.282Z,6.86
2022-10-15T14:55:03.196Z,6.79
2022-10-15T14:57:37.113Z,6.80
2022-10-15T15:00:15.863Z,6.99
2022-10-15T15:02:44.401Z,6.74
2022-10-15T15:05:12.267Z,6.68
2022-10-15T15:07:41.031Z,6.66
2022-10-15T15:10:10.035Z,6.58
2022-10-15T15:12:40.064Z,6.55
2022-10-15T15:15:18.190Z,6.50
2022-10-15T15:17:48.866Z,6.54
2022-10-15T15:20:21.866Z,6.54
2022-10-15T15:22:55.157Z,6.49
2022-10-15T15:25:30.475Z,6.46
2022-10-15T15:28:02.365Z,6.43
2022-10-15T15:30:33.089Z,6.42
2022-10-15T15:33:01.501Z,6.40
2022-10-15T15:35:33.587Z,6.40
2022-10-15T15:38:01.721Z,6.37
2022-10-15T15:40:29.741Z,6.35
2022-10-15T15:42:57.656Z,6.35
2022-10-15T15:45:27.591Z,6.35
2022-10-15T15:47:58.925Z,6.32
2022-10-15T15:50:27.208Z,6.29
2022-10-15T15:52:55.087Z,6.29
2022-10-15T15:55:23.046Z,6.28
2022-10-15T15:57:51.792Z,6.24
2022-10-15T16:00:19.824Z,6.24
2022-10-15T16:02:48.281Z,6.23
2022-10-15T16:05:17.589Z,6.21
2022-10-15T16:07:46.368Z,6.20
2022-10-15T16:10:14.674Z,6.19
2022-10-15T16:12:44.551Z,6.20
2022-10-15T16:15:14.692Z,6.23
2022-10-15T16:17:44.081Z,6.19
2022-10-15T16:20:13.147Z,6.18
2022-10-15T16:22:41.114Z,6.19
2022-10-15T16:25:09.990Z,6.16
2022-10-15T16:27:38.603Z,6.15
2022-10-15T16:30:06.971Z,6.16
2022-10-15T16:32:35.204Z,6.15
2022-10-15T16:35:04.314Z,6.12
2022-10-15T16:37:32.224Z,6.13
2022-10-15T16:40:00.425Z,6.10
2022-10-15T16:42:31.372Z,6.11
2022-10-15T16:44:59.134Z,6.07
2022-10-15T16:47:27.669Z,6.11
2022-10-15T16:49:56.291Z,6.07
2022-10-15T16:52:24.433Z,6.07
2022-10-15T16:54:52.855Z,6.07
2022-10-15T16:57:20.682Z,6.04
2022-10-15T16:59:51.944Z,6.00
2022-10-15T17:02:20.261Z,5.98
2022-10-15T17:04:48.319Z,5.96
2022-10-15T17:07:16.379Z,6.00
2022-10-15T17:09:46.673Z,5.98
2022-10-15T17:12:14.599Z,5.94
2022-10-15T17:14:42.492Z,5.93
2022-10-15T17:17:10.668Z,5.93
2022-10-15T17:19:38.506Z,5.89
2022-10-15T17:22:06.290Z,5.87
2022-10-15T17:24:34.560Z,5.84
2022-10-15T17:27:02.373Z,5.87
2022-10-15T17:29:33.553Z,5.86
2022-10-15T17:32:03.231Z,5.82
2022-10-15T17:34:31.111Z,5.76
2022-10-15T17:36:59.009Z,5.77
2022-10-15T17:39:27.265Z,5.78
2022-10-15T17:41:55.192Z,5.74
2022-10-15T17:44:23.023Z,5.71
2022-10-15T17:46:52.992Z,5.67
2022-10-15T17:49:23.118Z,5.69
2022-10-15T17:51:51.642Z,5.71
2022-10-15T17:54:20.122Z,5.68
2022-10-15T17:56:48.930Z,5.60
2022-10-15T17:59:17.137Z,5.66
2022-10-15T18:02:01.030Z,5.64
2022-10-15T18:04:31.349Z,5.57
2022-10-15T18:07:02.430Z,5.57
2022-10-15T18:09:30.807Z,5.52
2022-10-15T18:12:02.991Z,5.53
2022-10-15T18:14:32.452Z,5.47
2022-10-15T18:17:00.802Z,5.43
2022-10-15T18:19:31.623Z,5.42
2022-10-15T18:21:59.804Z,5.37
2022-10-15T18:24:27.617Z,5.33
2022-10-15T18:26:56.431Z,5.31
2022-10-15T18:29:26.196Z,5.31
2022-10-15T18:31:58.095Z,5.21
2022-10-15T18:34:30.662Z,5.14
2022-10-15T18:36:58.687Z,5.17
2022-10-15T18:39:27.308Z,5.19
2022-10-15T18:41:55.744Z,5.10
2022-10-15T18:44:24.365Z,5.12
2022-10-15T18:46:52.607Z,5.27
2022-10-15T18:49:22.585Z,5.35
2022-10-15T18:51:54.467Z,5.47
2022-10-15T18:57:08.246Z,5.38
2022-10-15T18:59:36.505Z,5.25
2022-10-15T19:02:04.329Z,5.32
2022-10-15T19:04:32.141Z,5.38
2022-10-15T19:07:03.851Z,5.36
2022-10-15T19:09:32.327Z,5.44
2022-10-15T19:12:04.847Z,5.49
2022-10-15T19:14:32.687Z,5.40
2022-10-15T19:17:01.205Z,5.39
2022-10-15T19:19:29.815Z,5.38
2022-10-15T19:21:58.164Z,5.32
2022-10-15T19:24:26.418Z,5.25
2022-10-15T19:26:54.690Z,5.51
2022-10-15T19:29:22.642Z,5.62
2022-10-15T19:31:53.561Z,5.62
2022-10-15T19:34:38.227Z,5.61
2022-10-15T19:37:07.169Z,5.50
2022-10-15T19:39:48.672Z,5.54
2022-10-15T19:42:17.166Z,5.44
2022-10-15T19:44:44.984Z,5.66
2022-10-15T19:47:21.245Z,5.57
2022-10-15T19:49:50.155Z,5.62
2022-10-15T19:52:17.990Z,5.47
2022-10-15T19:54:47.168Z,5.43
2022-10-15T19:57:15.234Z,5.40
2022-10-15T19:59:43.025Z,5.51
2022-10-15T20:02:12.918Z,5.42
2022-10-15T20:04:41.079Z,5.40
2022-10-15T20:07:08.905Z,5.40
2022-10-15T20:09:36.723Z,5.40
2022-10-15T20:12:04.896Z,5.33
2022-10-15T20:14:32.986Z,5.37
2022-10-15T20:17:00.741Z,5.25
2022-10-15T20:19:28.921Z,5.23
2022-10-15T20:21:56.703Z,5.13
2022-10-15T20:24:24.568Z,5.09
2022-10-15T20:26:52.673Z,5.16
2022-10-15T20:29:20.506Z,5.31
2022-10-15T20:31:49.240Z,5.51
2022-10-15T20:34:18.280Z,5.16
2022-10-15T20:36:46.071Z,5.27
2022-10-15T20:39:13.744Z,5.34
2022-10-15T20:41:41.876Z,5.08
2022-10-15T20:44:11.299Z,5.16
2022-10-15T20:46:47.118Z,5.17
2022-10-15T20:49:19.775Z,5.02
2022-10-15T20:51:48.437Z,5.04
2022-10-15T20:54:18.266Z,5.03
2022-10-15T20:56:46.407Z,5.14
2022-10-15T20:59:14.281Z,5.04
2022-10-15T21:01:42.799Z,5.03
2022-10-15T21:04:10.813Z,5.14
2022-10-15T21:06:38.579Z,5.03
2022-10-15T21:09:06.716Z,4.82
2022-10-15T21:11:42.302Z,4.75
2022-10-15T21:14:14.280Z,4.87
2022-10-15T21:16:42.296Z,4.96
2022-10-15T21:19:10.530Z,4.89
2022-10-15T21:21:39.483Z,4.85
2022-10-15T21:24:07.299Z,4.91
2022-10-15T21:26:35.470Z,4.93
2022-10-15T21:29:03.225Z,4.82
2022-10-15T21:31:31.058Z,4.88
2022-10-15T21:34:01.581Z,4.97
2022-10-15T21:36:29.694Z,4.82
2022-10-15T21:39:04.478Z,4.78
2022-10-15T21:41:34.328Z,4.79
2022-10-15T21:44:03.996Z,4.83
2022-10-15T21:46:44.226Z,4.57
2022-10-15T21:49:18.759Z,4.52
2022-10-15T21:51:47.080Z,4.51
2022-10-15T21:54:14.843Z,4.49
2022-10-15T21:56:42.753Z,4.32
2022-10-15T21:59:11.058Z,4.47
2022-10-15T22:01:41.379Z,4.30
2022-10-15T22:04:11.191Z,4.34
2022-10-15T22:06:40.804Z,4.50
2022-10-15T22:09:10.517Z,4.35
2022-10-15T22:11:40.931Z,4.18
2022-10-15T22:14:13.829Z,4.26
2022-10-15T22:16:42.792Z,4.17
2022-10-15T22:19:16.623Z,4.03
2022-10-15T22:21:45.587Z,3.92
2022-10-15T22:24:18.048Z,3.75
2022-10-15T22:26:49.212Z,3.94
2022-10-15T22:29:33.099Z,3.87
2022-10-15T22:32:04.385Z,3.97
2022-10-15T22:34:32.641Z,3.90
2022-10-15T22:37:00.850Z,3.81
2022-10-15T22:39:31.559Z,3.65
2022-10-15T22:41:59.728Z,3.53
2022-10-15T22:44:30.404Z,3.55
2022-10-15T22:46:58.656Z,3.44
2022-10-15T22:49:27.148Z,3.51
2022-10-15T22:51:55.120Z,3.70
2022-10-15T22:54:25.902Z,3.72
2022-10-15T22:56:56.851Z,3.40
2022-10-15T22:59:24.940Z,3.28
2022-10-15T23:01:52.805Z,3.42
2022-10-15T23:04:21.209Z,3.29
2022-10-15T23:06:51.127Z,3.67
2022-10-15T23:09:22.391Z,3.59
2022-10-15T23:11:50.826Z,3.52
2022-10-15T23:14:18.834Z,2.99
2022-10-15T23:16:48.421Z,3.16
2022-10-15T23:19:19.411Z,2.92
2022-10-15T23:21:49.582Z,2.99
2022-10-15T23:24:20.958Z,2.95
2022-10-15T23:26:49.166Z,3.08
2022-10-15T23:29:20.249Z,2.82
2022-10-15T23:31:50.163Z,2.77
2022-10-15T23:34:21.962Z,2.80
2022-10-15T23:36:50.371Z,2.61
2022-10-15T23:39:24.386Z,2.67
2022-10-15T23:41:52.820Z,2.56
2022-10-15T23:44:21.556Z,2.55
2022-10-15T23:46:49.464Z,2.49
2022-10-15T23:49:20.481Z,2.29
2022-10-15T23:51:51.970Z,2.14
2022-10-15T23:54:19.940Z,2.37
2022-10-15T23:56:49.136Z,2.39
2022-10-15T23:59:19.370Z,2.44
